createdAt,value
2018-04-22T00:01:33.234Z,10.77
2018-04-22T00:07:23.965Z,8.07
2018-04-22T00:13:14.632Z,6.42
2018-04-22T00:19:05.316Z,5.1
2018-04-22T00:24:56.009Z,10.09
2018-04-22T00:30:46.739Z,8.53
2018-04-22T00:36:37.361Z,6.37
2018-04-22T00:42:28.055Z,7.84
2018-04-22T00:48:18.746Z,6.91
2018-04-22T00:54:09.413Z,6.93
2018-04-22T01:00:00.117Z,5.97
2018-04-22T01:05:50.797Z,8.45
2018-04-22T01:11:41.570Z,6.35
2018-04-22T01:17:32.153Z,9.57
2018-04-22T01:23:22.925Z,5.73
2018-04-22T01:29:13.572Z,7.84
2018-04-22T01:35:04.310Z,6.02
2018-04-22T01:40:54.988Z,8.22
2018-04-22T01:46:45.625Z,8.58
2018-04-22T01:52:36.309Z,5.31
2018-04-22T01:58:26.953Z,9.97
2018-04-22T02:04:17.646Z,8.52
2018-04-22T02:10:08.392Z,6.92
2018-04-22T02:15:59.012Z,5.71
2018-04-22T02:21:49.726Z,8.48
2018-04-22T02:27:40.403Z,8.93
2018-04-22T02:33:31.153Z,7.54
2018-04-22T02:39:21.798Z,6.29
2018-04-22T02:45:12.444Z,7.64
2018-04-22T02:51:03.221Z,11.32
2018-04-22T02:56:53.803Z,6.43
2018-04-22T03:02:44.509Z,5.79
2018-04-22T03:08:35.160Z,7.26
2018-04-22T03:14:25.867Z,7.72
2018-04-22T03:20:16.526Z,11.68
2018-04-22T03:26:07.217Z,9.43
2018-04-22T03:31:57.929Z,11.63
2018-04-22T03:37:48.566Z,12.95
2018-04-22T03:43:39.252Z,16.71
2018-04-22T03:49:29.947Z,18.24
2018-04-22T03:55:20.591Z,17.58
2018-04-22T04:01:11.302Z,18.18
2018-04-22T04:07:01.957Z,13.14
2018-04-22T04:12:52.609Z,14.89
2018-04-22T04:18:43.331Z,20.04
2018-04-22T04:24:34.005Z,21.59
2018-04-22T04:30:24.636Z,22.21
2018-04-22T04:36:15.354Z,21.66
2018-04-22T04:42:06.010Z,17.81
2018-04-22T04:47:56.668Z,13.11
2018-04-22T04:53:47.413Z,118.14
2018-04-22T04:59:38.040Z,246.27
2018-04-22T05:05:28.714Z,185.55
2018-04-22T05:11:19.427Z,169.24
2018-04-22T05:17:10.091Z,184.7
2018-04-22T05:23:00.727Z,128.31
2018-04-22T05:28:51.398Z,217.54
2018-04-22T05:34:42.042Z,83.05
2018-04-22T05:40:32.743Z,57.07
2018-04-22T05:46:23.445Z,16.9
2018-04-22T05:52:14.089Z,13.24
2018-04-22T05:58:04.781Z,22.25
2018-04-22T06:03:55.457Z,19.04
2018-04-22T06:09:46.127Z,19.68
2018-04-22T06:15:36.812Z,20.54
2018-04-22T06:21:27.438Z,25.48
2018-04-22T06:27:18.147Z,21.53
2018-04-22T06:33:08.792Z,19.29
2018-04-22T06:38:59.485Z,16.56
2018-04-22T06:44:50.202Z,18.95
2018-04-22T06:50:40.833Z,19.64
2018-04-22T06:56:31.499Z,18.62
2018-04-22T07:02:22.158Z,18.65
2018-04-22T07:08:12.848Z,18.56
2018-04-22T07:14:03.526Z,20.77
2018-04-22T07:19:54.229Z,15.59
2018-04-22T07:25:44.912Z,20.67
2018-04-22T07:31:35.602Z,21.38
2018-04-22T07:37:26.396Z,20.42
2018-04-22T07:43:16.953Z,22.55
2018-04-22T07:49:07.645Z,21.04
2018-04-22T07:54:58.358Z,23.56
2018-04-22T08:00:49.085Z,19.48
2018-04-22T08:06:39.752Z,17.53
2018-04-22T08:12:30.433Z,19.71
2018-04-22T08:18:21.126Z,17.07
2018-04-22T08:24:11.813Z,15.97
2018-04-22T08:30:02.526Z,15.54
2018-04-22T08:35:53.235Z,16.86
2018-04-22T08:41:43.960Z,16.68
2018-04-22T08:47:34.649Z,13.21
2018-04-22T08:53:25.380Z,13.49
2018-04-22T08:59:16.083Z,10.56
2018-04-22T09:05:06.914Z,11.12
2018-04-22T09:10:57.597Z,14.18
2018-04-22T09:16:48.282Z,10.25
2018-04-22T09:22:38.980Z,13.43
2018-04-22T09:28:29.716Z,10.47
2018-04-22T09:34:20.448Z,9.4
2018-04-22T09:40:11.112Z,9.47
2018-04-22T09:46:01.884Z,12.24
2018-04-22T09:51:52.618Z,10.71
2018-04-22T09:57:43.311Z,12.99
2018-04-22T10:03:34.109Z,10.54
2018-04-22T10:09:24.813Z,8.42
2018-04-22T10:15:15.537Z,9.31
2018-04-22T10:21:06.377Z,8.02
2018-04-22T10:26:56.992Z,10.29
2018-04-22T10:32:47.739Z,12.78
2018-04-22T10:38:38.522Z,7.79
2018-04-22T10:44:29.252Z,8.78
2018-04-22T10:50:19.991Z,9.25
2018-04-22T10:56:10.734Z,12.11
2018-04-22T11:02:01.519Z,14.51
2018-04-22T11:07:52.297Z,10.99
2018-04-22T11:13:42.994Z,13.49
2018-04-22T11:19:33.774Z,12.86
2018-04-22T11:25:24.517Z,15.31
2018-04-22T11:31:15.302Z,11.4
2018-04-22T11:37:06.041Z,9.77
2018-04-22T11:42:56.812Z,12.56
2018-04-22T11:48:47.579Z,10.34
2018-04-22T11:54:38.354Z,25.92
2018-04-22T12:00:29.101Z,8.3
2018-04-22T12:06:19.838Z,13.4
2018-04-22T12:12:10.601Z,10.88
2018-04-22T12:18:01.401Z,8.45
2018-04-22T12:23:52.164Z,6.85
2018-04-22T12:29:42.934Z,7.62
2018-04-22T12:35:33.703Z,7.74
2018-04-22T12:41:24.482Z,8.95
2018-04-22T12:47:15.204Z,6.79
2018-04-22T12:53:05.981Z,7.79
2018-04-22T12:58:56.767Z,8.96
2018-04-22T13:04:47.524Z,13.16
2018-04-22T13:10:38.257Z,8.33
2018-04-22T13:16:29.067Z,6.42
2018-04-22T13:22:19.813Z,4.71
2018-04-22T13:28:10.593Z,6.91
2018-04-22T13:34:01.402Z,10.9
2018-04-22T13:39:52.095Z,5.12
2018-04-22T13:45:42.970Z,4.71
2018-04-22T13:51:33.640Z,6.36
2018-04-22T13:57:24.413Z,5.94
2018-04-22T14:03:15.213Z,5.84
2018-04-22T14:09:07.191Z,8.06
2018-04-22T14:14:56.721Z,6.57
2018-04-22T14:20:47.484Z,4.79
2018-04-22T14:26:38.237Z,4.74
2018-04-22T14:32:29.047Z,7.89
2018-04-22T14:38:19.792Z,3.66
2018-04-22T14:44:10.539Z,5.56
2018-04-22T14:50:01.331Z,5.59
2018-04-22T14:55:52.735Z,7.65
2018-04-22T15:01:42.872Z,4.57
2018-04-22T15:07:33.639Z,4.04
2018-04-22T15:13:24.473Z,4.24
2018-04-22T15:19:15.810Z,4.35
2018-04-22T15:25:05.991Z,6.74
2018-04-22T15:30:56.839Z,4.93
2018-04-22T15:36:47.483Z,4.06
2018-04-22T15:42:38.232Z,6.02
2018-04-22T15:48:29.003Z,4.55
2018-04-22T15:54:19.715Z,6.36
2018-04-22T16:00:10.477Z,5.35
2018-04-22T16:06:01.248Z,10.49
2018-04-22T16:11:52.026Z,5.03
2018-04-22T16:17:42.785Z,5.31
2018-04-22T16:23:33.600Z,5.76
2018-04-22T16:29:24.389Z,6.24
2018-04-22T16:35:15.066Z,5.78
2018-04-22T16:41:05.849Z,12.24
2018-04-22T16:46:56.580Z,5.18
2018-04-22T16:52:47.366Z,5.32
2018-04-22T16:58:38.170Z,7.53
2018-04-22T17:04:28.868Z,7.51
2018-04-22T17:10:19.578Z,7.26
2018-04-22T17:16:10.382Z,7.35
2018-04-22T17:22:01.119Z,5.59
2018-04-22T17:27:51.858Z,6.13
2018-04-22T17:33:42.590Z,5.38
2018-04-22T17:39:33.395Z,7.09
2018-04-22T17:45:24.162Z,9.43
2018-04-22T17:51:14.884Z,6.15
2018-04-22T17:57:05.666Z,10.39
2018-04-22T18:02:56.365Z,10.04
2018-04-22T18:08:47.131Z,5.63
2018-04-22T18:14:37.904Z,7.82
2018-04-22T18:20:28.584Z,10
2018-04-22T18:26:19.337Z,7.32
2018-04-22T18:32:10.100Z,6.57
2018-04-22T18:38:00.831Z,8.49
2018-04-22T18:43:51.561Z,24.2
2018-04-22T18:49:42.296Z,55.67
2018-04-22T18:55:33.030Z,45.04
2018-04-22T19:01:23.799Z,39.45
2018-04-22T19:07:14.439Z,20.2
2018-04-22T19:13:05.263Z,6.92
2018-04-22T19:18:55.907Z,8.79
2018-04-22T19:24:46.646Z,8.43
2018-04-22T19:30:37.370Z,8.31
2018-04-22T19:36:28.055Z,7.74
2018-04-22T19:42:18.774Z,7.25
2018-04-22T19:48:09.498Z,10.16
2018-04-22T19:54:00.204Z,10.85
2018-04-22T19:59:50.923Z,42.11
2018-04-22T20:05:41.633Z,91.61
2018-04-22T20:11:32.371Z,30.25
2018-04-22T20:17:23.116Z,21.54
2018-04-22T20:23:13.779Z,18.5
2018-04-22T20:29:04.482Z,14.24
2018-04-22T20:34:55.150Z,11.82
2018-04-22T20:40:45.927Z,11.26
2018-04-22T20:46:36.597Z,7.79
2018-04-22T20:52:27.292Z,8.54
2018-04-22T20:58:17.974Z,8.41
2018-04-22T21:04:08.656Z,4.96
2018-04-22T21:09:59.394Z,8.15
2018-04-22T21:15:50.089Z,10.35
2018-04-22T21:21:41.010Z,8.79
2018-04-22T21:27:31.509Z,8.12
2018-04-22T21:33:22.225Z,7.72
2018-04-22T21:39:12.957Z,7.44
2018-04-22T21:45:03.570Z,6.07
2018-04-22T21:50:54.327Z,6.41
2018-04-22T21:56:45.728Z,11.23
2018-04-22T22:02:35.626Z,6.25
2018-04-22T22:08:26.363Z,9.61
2018-04-22T22:14:17.039Z,6.37
2018-04-22T22:20:07.707Z,6.34
2018-04-22T22:25:58.419Z,7.87
2018-04-22T22:31:49.084Z,8.74
2018-04-22T22:37:39.749Z,9
2018-04-22T22:43:30.546Z,7.27
2018-04-22T22:49:21.196Z,8.33
2018-04-22T22:55:11.812Z,8.19
2018-04-22T23:01:02.517Z,9.5
2018-04-22T23:06:53.255Z,10.48
2018-04-22T23:12:43.872Z,9.1
2018-04-22T23:18:34.637Z,7.9
2018-04-22T23:24:25.282Z,11.33
2018-04-22T23:30:15.999Z,9.99
2018-04-22T23:36:06.621Z,11.59
2018-04-22T23:41:57.315Z,9.99
2018-04-22T23:47:48.076Z,7.88
2018-04-22T23:53:38.688Z,11.78
2018-04-22T23:59:29.382Z,8.02
